sensor_id;sensor_type;location;lat;lon;timestamp;P1;durP1;ratioP1;P2;durP2;ratioP2
1062;SDS011;520;50.932;6.962;2022-08-19T00:06:11;9.10;;;7.73;;
1062;SDS011;520;50.932;6.962;2022-08-19T00:10:03;8.67;;;7.97;;
1062;SDS011;520;50.932;6.962;2022-08-19T00:20:36;9.67;;;8.67;;
1062;SDS011;520;50.932;6.962;2022-08-19T00:31:04;10.23;;;9.03;;
1062;SDS011;520;50.932;6.962;2022-08-19T00:34:05;9.80;;;8.50;;
1062;SDS011;520;50.932;6.962;2022-08-19T00:36:44;9.07;;;8.20;;
1062;SDS011;520;50.932;6.962;2022-08-19T00:42:29;9.40;;;8.50;;
1062;SDS011;520;50.932;6.962;2022-08-19T00:45:29;10.37;;;9.47;;
1062;SDS011;520;50.932;6.962;2022-08-19T00:52:19;10.03;;;9.23;;
1062;SDS011;520;50.932;6.962;2022-08-19T00:55:21;9.87;;;8.93;;
1062;SDS011;520;50.932;6.962;2022-08-19T00:58:27;10.63;;;9.67;;
1062;SDS011;520;50.932;6.962;2022-08-19T01:01:33;9.97;;;8.97;;
1062;SDS011;520;50.932;6.962;2022-08-19T01:04:25;10.17;;;9.13;;
1062;SDS011;520;50.932;6.962;2022-08-19T01:06:58;9.63;;;8.80;;
1062;SDS011;520;50.932;6.962;2022-08-19T01:09:55;9.80;;;8.90;;
1062;SDS011;520;50.932;6.962;2022-08-19T01:13:20;9.63;;;8.80;;
1062;SDS011;520;50.932;6.962;2022-08-19T01:16:44;9.70;;;8.80;;
1062;SDS011;520;50.932;6.962;2022-08-19T01:19:41;11.50;;;10.40;;
1062;SDS011;520;50.932;6.962;2022-08-19T01:22:47;10.13;;;9.00;;
1062;SDS011;520;50.932;6.962;2022-08-19T01:25:46;10.30;;;9.40;;
1062;SDS011;520;50.932;6.962;2022-08-19T01:29:30;10.87;;;9.80;;
1062;SDS011;520;50.932;6.962;2022-08-19T01:32:27;10.47;;;9.47;;
1062;SDS011;520;50.932;6.962;2022-08-19T01:35:03;11.93;;;10.63;;
1062;SDS011;520;50.932;6.962;2022-08-19T01:38:00;11.37;;;10.40;;
1062;SDS011;520;50.932;6.962;2022-08-19T01:41:20;11.00;;;9.87;;
1062;SDS011;520;50.932;6.962;2022-08-19T01:44:05;11.63;;;10.50;;
1062;SDS011;520;50.932;6.962;2022-08-19T01:46:53;9.60;;;8.67;;
1062;SDS011;520;50.932;6.962;2022-08-19T01:49:47;10.97;;;9.90;;
1062;SDS011;520;50.932;6.962;2022-08-19T01:56:01;12.53;;;11.33;;
1062;SDS011;520;50.932;6.962;2022-08-19T02:01:58;11.10;;;10.00;;
1062;SDS011;520;50.932;6.962;2022-08-19T02:04:40;11.40;;;10.30;;
1062;SDS011;520;50.932;6.962;2022-08-19T02:07:37;11.50;;;9.80;;
1062;SDS011;520;50.932;6.962;2022-08-19T02:10:25;10.40;;;9.40;;
1062;SDS011;520;50.932;6.962;2022-08-19T02:13:32;11.80;;;10.40;;
1062;SDS011;520;50.932;6.962;2022-08-19T02:16:14;12.43;;;11.23;;
1062;SDS011;520;50.932;6.962;2022-08-19T02:19:01;11.47;;;10.47;;
1062;SDS011;520;50.932;6.962;2022-08-19T02:22:02;11.63;;;10.60;;
1062;SDS011;520;50.932;6.962;2022-08-19T02:24:36;11.50;;;10.40;;
1062;SDS011;520;50.932;6.962;2022-08-19T02:27:16;12.57;;;11.30;;
1062;SDS011;520;50.932;6.962;2022-08-19T02:30:07;11.70;;;10.60;;
1062;SDS011;520;50.932;6.962;2022-08-19T02:32:53;11.03;;;10.00;;
1062;SDS011;520;50.932;6.962;2022-08-19T02:35:40;12.73;;;11.50;;
1062;SDS011;520;50.932;6.962;2022-08-19T02:41:45;11.70;;;10.70;;
1062;SDS011;520;50.932;6.962;2022-08-19T02:44:50;13.80;;;11.37;;
1062;SDS011;520;50.932;6.962;2022-08-19T02:47:30;13.27;;;11.87;;
1062;SDS011;520;50.932;6.962;2022-08-19T02:53:00;12.97;;;11.60;;
1062;SDS011;520;50.932;6.962;2022-08-19T02:59:02;12.30;;;11.20;;
1062;SDS011;520;50.932;6.962;2022-08-19T03:05:36;11.63;;;10.57;;
1062;SDS011;520;50.932;6.962;2022-08-19T03:11:41;12.33;;;11.03;;
1062;SDS011;520;50.932;6.962;2022-08-19T03:14:49;12.00;;;10.90;;
1062;SDS011;520;50.932;6.962;2022-08-19T03:17:30;11.93;;;10.83;;
1062;SDS011;520;50.932;6.962;2022-08-19T03:20:26;12.37;;;11.13;;
1062;SDS011;520;50.932;6.962;2022-08-19T03:26:42;11.90;;;10.70;;
1062;SDS011;520;50.932;6.962;2022-08-19T03:29:37;12.23;;;11.03;;
1062;SDS011;520;50.932;6.962;2022-08-19T03:32:18;12.70;;;10.17;;
1062;SDS011;520;50.932;6.962;2022-08-19T03:35:27;12.43;;;11.17;;
1062;SDS011;520;50.932;6.962;2022-08-19T03:38:16;11.93;;;10.83;;
1062;SDS011;520;50.932;6.962;2022-08-19T03:41:26;11.03;;;10.03;;
1062;SDS011;520;50.932;6.962;2022-08-19T03:44:40;14.77;;;11.20;;
1062;SDS011;520;50.932;6.962;2022-08-19T03:47:37;12.33;;;11.13;;
1062;SDS011;520;50.932;6.962;2022-08-19T03:50:47;11.80;;;10.80;;
1062;SDS011;520;50.932;6.962;2022-08-19T03:53:38;14.17;;;11.30;;
1062;SDS011;520;50.932;6.962;2022-08-19T03:56:27;13.20;;;12.00;;
1062;SDS011;520;50.932;6.962;2022-08-19T03:59:15;17.53;;;15.63;;
1062;SDS011;520;50.932;6.962;2022-08-19T04:05:43;21.00;;;18.80;;
1062;SDS011;520;50.932;6.962;2022-08-19T04:08:28;21.37;;;19.00;;
1062;SDS011;520;50.932;6.962;2022-08-19T04:14:32;24.87;;;20.23;;
1062;SDS011;520;50.932;6.962;2022-08-19T04:17:30;24.80;;;19.50;;
1062;SDS011;520;50.932;6.962;2022-08-19T04:20:49;23.67;;;21.27;;
1062;SDS011;520;50.932;6.962;2022-08-19T04:23:19;23.33;;;20.77;;
1062;SDS011;520;50.932;6.962;2022-08-19T04:26:25;21.10;;;18.97;;
1062;SDS011;520;50.932;6.962;2022-08-19T04:32:46;21.00;;;18.90;;
1062;SDS011;520;50.932;6.962;2022-08-19T04:38:50;25.33;;;21.47;;
1062;SDS011;520;50.932;6.962;2022-08-19T04:41:41;30.50;;;22.60;;
1062;SDS011;520;50.932;6.962;2022-08-19T04:44:53;24.43;;;20.87;;
1062;SDS011;520;50.932;6.962;2022-08-19T04:48:02;22.73;;;20.33;;
1062;SDS011;520;50.932;6.962;2022-08-19T04:54:15;24.73;;;22.27;;
1062;SDS011;520;50.932;6.962;2022-08-19T05:00:50;25.50;;;22.90;;
1062;SDS011;520;50.932;6.962;2022-08-19T05:03:52;25.00;;;22.60;;
1062;SDS011;520;50.932;6.962;2022-08-19T05:07:07;26.00;;;23.00;;
1062;SDS011;520;50.932;6.962;2022-08-19T05:10:07;24.50;;;21.90;;
1062;SDS011;520;50.932;6.962;2022-08-19T05:12:55;23.63;;;21.07;;
1062;SDS011;520;50.932;6.962;2022-08-19T05:15:55;25.00;;;22.60;;
1062;SDS011;520;50.932;6.962;2022-08-19T05:22:32;21.50;;;19.40;;
1062;SDS011;520;50.932;6.962;2022-08-19T05:26:04;22.73;;;20.17;;
1062;SDS011;520;50.932;6.962;2022-08-19T05:29:17;22.77;;;20.23;;
1062;SDS011;520;50.932;6.962;2022-08-19T05:32:03;23.73;;;21.33;;
1062;SDS011;520;50.932;6.962;2022-08-19T05:34:56;25.03;;;21.83;;
1062;SDS011;520;50.932;6.962;2022-08-19T05:37:43;25.90;;;23.20;;
1062;SDS011;520;50.932;6.962;2022-08-19T05:47:46;23.43;;;20.80;;
1062;SDS011;520;50.932;6.962;2022-08-19T05:51:26;24.00;;;21.43;;
1062;SDS011;520;50.932;6.962;2022-08-19T05:55:24;24.33;;;21.80;;
1062;SDS011;520;50.932;6.962;2022-08-19T05:58:29;24.87;;;22.13;;
1062;SDS011;520;50.932;6.962;2022-08-19T06:01:49;24.87;;;22.20;;
1062;SDS011;520;50.932;6.962;2022-08-19T06:16:24;26.67;;;23.13;;
1062;SDS011;520;50.932;6.962;2022-08-19T06:19:09;23.77;;;21.27;;
1062;SDS011;520;50.932;6.962;2022-08-19T06:22:46;25.10;;;21.37;;
1062;SDS011;520;50.932;6.962;2022-08-19T06:30:05;22.37;;;20.03;;
1062;SDS011;520;50.932;6.962;2022-08-19T06:34:01;23.03;;;20.63;;
1062;SDS011;520;50.932;6.962;2022-08-19T06:41:49;21.80;;;19.30;;
1062;SDS011;520;50.932;6.962;2022-08-19T06:45:18;22.50;;;19.63;;
1062;SDS011;520;50.932;6.962;2022-08-19T06:49:02;22.23;;;19.93;;
1062;SDS011;520;50.932;6.962;2022-08-19T06:52:08;21.00;;;18.67;;
1062;SDS011;520;50.932;6.962;2022-08-19T06:56:01;24.00;;;21.43;;
1062;SDS011;520;50.932;6.962;2022-08-19T07:06:16;19.93;;;17.90;;
1062;SDS011;520;50.932;6.962;2022-08-19T07:10:11;22.83;;;20.47;;
1062;SDS011;520;50.932;6.962;2022-08-19T07:13:23;22.17;;;19.73;;
1062;SDS011;520;50.932;6.962;2022-08-19T07:19:17;20.83;;;18.63;;
1062;SDS011;520;50.932;6.962;2022-08-19T07:24:31;20.00;;;17.90;;
1062;SDS011;520;50.932;6.962;2022-08-19T07:27:25;18.60;;;16.57;;
1062;SDS011;520;50.932;6.962;2022-08-19T07:30:07;19.30;;;17.50;;
1062;SDS011;520;50.932;6.962;2022-08-19T07:36:45;17.40;;;15.40;;
1062;SDS011;520;50.932;6.962;2022-08-19T07:40:15;18.50;;;16.47;;
1062;SDS011;520;50.932;6.962;2022-08-19T07:43:04;17.53;;;15.40;;
1062;SDS011;520;50.932;6.962;2022-08-19T07:49:11;17.20;;;15.50;;
1062;SDS011;520;50.932;6.962;2022-08-19T07:52:04;18.67;;;16.60;;
1062;SDS011;520;50.932;6.962;2022-08-19T07:55:19;21.20;;;19.00;;
1062;SDS011;520;50.932;6.962;2022-08-19T07:58:30;22.33;;;19.90;;
1062;SDS011;520;50.932;6.962;2022-08-19T08:04:25;21.33;;;18.80;;
1062;SDS011;520;50.932;6.962;2022-08-19T08:07:37;22.23;;;19.13;;
1062;SDS011;520;50.932;6.962;2022-08-19T08:10:59;24.90;;;18.83;;
1062;SDS011;520;50.932;6.962;2022-08-19T08:21:33;25.00;;;20.57;;
1062;SDS011;520;50.932;6.962;2022-08-19T08:27:25;29.77;;;23.97;;
1062;SDS011;520;50.932;6.962;2022-08-19T08:30:33;23.20;;;20.80;;
1062;SDS011;520;50.932;6.962;2022-08-19T08:33:26;25.10;;;20.13;;
1062;SDS011;520;50.932;6.962;2022-08-19T08:36:40;24.10;;;21.20;;
1062;SDS011;520;50.932;6.962;2022-08-19T08:50:37;27.10;;;23.70;;
1062;SDS011;520;50.932;6.962;2022-08-19T08:54:11;25.40;;;21.47;;
1062;SDS011;520;50.932;6.962;2022-08-19T09:04:12;32.43;;;26.37;;
1062;SDS011;520;50.932;6.962;2022-08-19T09:16:36;30.17;;;25.63;;
1062;SDS011;520;50.932;6.962;2022-08-19T09:20:28;25.30;;;22.60;;
1062;SDS011;520;50.932;6.962;2022-08-19T09:23:53;24.87;;;22.13;;
1062;SDS011;520;50.932;6.962;2022-08-19T09:30:56;23.27;;;20.97;;
1062;SDS011;520;50.932;6.962;2022-08-19T09:37:00;21.07;;;18.87;;
1062;SDS011;520;50.932;6.962;2022-08-19T09:43:24;23.67;;;21.47;;
1062;SDS011;520;50.932;6.962;2022-08-19T09:49:51;20.17;;;18.27;;
1062;SDS011;520;50.932;6.962;2022-08-19T09:52:40;20.33;;;18.53;;
1062;SDS011;520;50.932;6.962;2022-08-19T09:55:34;20.43;;;18.50;;
1062;SDS011;520;50.932;6.962;2022-08-19T09:58:56;16.83;;;15.03;;
1062;SDS011;520;50.932;6.962;2022-08-19T10:02:28;16.60;;;15.10;;
1062;SDS011;520;50.932;6.962;2022-08-19T10:05:09;17.07;;;15.43;;
1062;SDS011;520;50.932;6.962;2022-08-19T10:08:47;13.10;;;12.00;;
1062;SDS011;520;50.932;6.962;2022-08-19T10:11:34;12.37;;;11.17;;
1062;SDS011;520;50.932;6.962;2022-08-19T10:14:35;12.17;;;10.93;;
1062;SDS011;520;50.932;6.962;2022-08-19T10:17:21;15.43;;;14.03;;
1062;SDS011;520;50.932;6.962;2022-08-19T10:20:01;12.07;;;11.00;;
1062;SDS011;520;50.932;6.962;2022-08-19T10:23:03;12.07;;;11.03;;
1062;SDS011;520;50.932;6.962;2022-08-19T10:25:43;10.57;;;9.67;;
1062;SDS011;520;50.932;6.962;2022-08-19T10:40:05;15.07;;;13.67;;
1062;SDS011;520;50.932;6.962;2022-08-19T10:43:02;13.53;;;12.43;;
1062;SDS011;520;50.932;6.962;2022-08-19T10:46:23;13.63;;;12.53;;
1062;SDS011;520;50.932;6.962;2022-08-19T10:49:30;11.70;;;10.80;;
1062;SDS011;520;50.932;6.962;2022-08-19T10:53:08;13.50;;;12.40;;
1062;SDS011;520;50.932;6.962;2022-08-19T10:57:15;15.30;;;13.90;;
1062;SDS011;520;50.932;6.962;2022-08-19T11:03:50;15.30;;;14.00;;
1062;SDS011;520;50.932;6.962;2022-08-19T11:10:34;17.53;;;14.20;;
1062;SDS011;520;50.932;6.962;2022-08-19T11:16:23;15.13;;;13.83;;
1062;SDS011;520;50.932;6.962;2022-08-19T11:19:21;17.03;;;15.23;;
1062;SDS011;520;50.932;6.962;2022-08-19T11:22:01;13.80;;;12.60;;
1062;SDS011;520;50.932;6.962;2022-08-19T11:24:45;12.33;;;11.33;;
1062;SDS011;520;50.932;6.962;2022-08-19T11:27:47;11.70;;;10.63;;
1062;SDS011;520;50.932;6.962;2022-08-19T11:34:13;13.23;;;11.97;;
1062;SDS011;520;50.932;6.962;2022-08-19T11:37:39;12.67;;;11.57;;
1062;SDS011;520;50.932;6.962;2022-08-19T11:40:15;12.10;;;11.20;;
1062;SDS011;520;50.932;6.962;2022-08-19T11:42:52;11.37;;;10.37;;
1062;SDS011;520;50.932;6.962;2022-08-19T11:45:25;11.97;;;10.77;;
1062;SDS011;520;50.932;6.962;2022-08-19T11:48:05;10.30;;;9.50;;
1062;SDS011;520;50.932;6.962;2022-08-19T11:50:39;9.73;;;8.97;;
1062;SDS011;520;50.932;6.962;2022-08-19T11:53:11;9.37;;;8.53;;
1062;SDS011;520;50.932;6.962;2022-08-19T11:55:38;8.80;;;8.10;;
1062;SDS011;520;50.932;6.962;2022-08-19T12:00:43;10.13;;;9.30;;
1062;SDS011;520;50.932;6.962;2022-08-19T12:03:14;9.63;;;8.87;;
1062;SDS011;520;50.932;6.962;2022-08-19T12:05:46;9.80;;;9.00;;
1062;SDS011;520;50.932;6.962;2022-08-19T12:08:17;10.90;;;9.80;;
1062;SDS011;520;50.932;6.962;2022-08-19T12:10:56;10.83;;;9.93;;
1062;SDS011;520;50.932;6.962;2022-08-19T12:13:23;10.77;;;9.87;;
1062;SDS011;520;50.932;6.962;2022-08-19T12:16:00;8.67;;;7.97;;
1062;SDS011;520;50.932;6.962;2022-08-19T12:18:38;8.70;;;7.90;;
1062;SDS011;520;50.932;6.962;2022-08-19T12:21:15;8.53;;;7.73;;
1062;SDS011;520;50.932;6.962;2022-08-19T12:23:57;7.73;;;7.20;;
1062;SDS011;520;50.932;6.962;2022-08-19T12:26:29;7.80;;;7.10;;
1062;SDS011;520;50.932;6.962;2022-08-19T12:28:57;8.80;;;8.13;;
1062;SDS011;520;50.932;6.962;2022-08-19T12:31:29;8.03;;;7.37;;
1062;SDS011;520;50.932;6.962;2022-08-19T12:33:58;9.00;;;8.20;;
1062;SDS011;520;50.932;6.962;2022-08-19T12:36:33;7.77;;;7.07;;
1062;SDS011;520;50.932;6.962;2022-08-19T12:39:01;7.67;;;7.07;;
1062;SDS011;520;50.932;6.962;2022-08-19T12:41:36;8.67;;;7.87;;
1062;SDS011;520;50.932;6.962;2022-08-19T12:44:16;8.37;;;7.67;;
1062;SDS011;520;50.932;6.962;2022-08-19T12:46:56;8.00;;;7.30;;
1062;SDS011;520;50.932;6.962;2022-08-19T12:49:33;9.03;;;8.23;;
1062;SDS011;520;50.932;6.962;2022-08-19T12:52:19;8.50;;;7.63;;
1062;SDS011;520;50.932;6.962;2022-08-19T12:54:59;7.80;;;7.20;;
1062;SDS011;520;50.932;6.962;2022-08-19T12:57:27;8.30;;;7.50;;
1062;SDS011;520;50.932;6.962;2022-08-19T13:00:17;9.73;;;8.83;;
1062;SDS011;520;50.932;6.962;2022-08-19T13:02:55;8.97;;;8.17;;
1062;SDS011;520;50.932;6.962;2022-08-19T13:05:43;7.97;;;7.37;;
1062;SDS011;520;50.932;6.962;2022-08-19T13:08:19;8.50;;;7.77;;
1062;SDS011;520;50.932;6.962;2022-08-19T13:10:55;7.63;;;6.90;;
1062;SDS011;520;50.932;6.962;2022-08-19T13:13:30;8.20;;;7.50;;
1062;SDS011;520;50.932;6.962;2022-08-19T13:16:02;8.47;;;7.73;;
1062;SDS011;520;50.932;6.962;2022-08-19T13:18:35;11.73;;;9.80;;
1062;SDS011;520;50.932;6.962;2022-08-19T13:21:19;8.57;;;7.77;;
1062;SDS011;520;50.932;6.962;2022-08-19T13:24:04;7.30;;;6.70;;
1062;SDS011;520;50.932;6.962;2022-08-19T13:27:01;7.40;;;6.80;;
1062;SDS011;520;50.932;6.962;2022-08-19T13:29:40;6.90;;;6.30;;
1062;SDS011;520;50.932;6.962;2022-08-19T13:32:42;7.10;;;6.50;;
1062;SDS011;520;50.932;6.962;2022-08-19T13:35:41;6.30;;;5.70;;
1062;SDS011;520;50.932;6.962;2022-08-19T13:38:24;6.83;;;6.20;;
1062;SDS011;520;50.932;6.962;2022-08-19T13:41:06;5.97;;;5.40;;
1062;SDS011;520;50.932;6.962;2022-08-19T13:47:26;6.33;;;5.73;;
1062;SDS011;520;50.932;6.962;2022-08-19T13:50:10;6.37;;;5.73;;
1062;SDS011;520;50.932;6.962;2022-08-19T13:52:46;5.60;;;5.10;;
1062;SDS011;520;50.932;6.962;2022-08-19T13:55:21;6.83;;;6.00;;
1062;SDS011;520;50.932;6.962;2022-08-19T13:57:58;6.07;;;5.57;;
1062;SDS011;520;50.932;6.962;2022-08-19T14:00:46;7.13;;;6.10;;
1062;SDS011;520;50.932;6.962;2022-08-19T14:03:27;5.50;;;5.00;;
1062;SDS011;520;50.932;6.962;2022-08-19T14:06:25;7.50;;;6.80;;
1062;SDS011;520;50.932;6.962;2022-08-19T14:09:13;5.90;;;5.30;;
1062;SDS011;520;50.932;6.962;2022-08-19T14:11:55;7.03;;;6.40;;
1062;SDS011;520;50.932;6.962;2022-08-19T14:14:42;6.50;;;5.23;;
1062;SDS011;520;50.932;6.962;2022-08-19T14:17:46;5.57;;;5.00;;
1062;SDS011;520;50.932;6.962;2022-08-19T14:20:27;5.60;;;5.10;;
1062;SDS011;520;50.932;6.962;2022-08-19T14:23:25;6.83;;;6.30;;
1062;SDS011;520;50.932;6.962;2022-08-19T14:26:09;6.77;;;5.53;;
1062;SDS011;520;50.932;6.962;2022-08-19T14:28:46;7.87;;;6.23;;
1062;SDS011;520;50.932;6.962;2022-08-19T14:31:52;5.30;;;4.80;;
1062;SDS011;520;50.932;6.962;2022-08-19T14:35:01;7.50;;;6.47;;
1062;SDS011;520;50.932;6.962;2022-08-19T14:37:40;6.80;;;6.10;;
1062;SDS011;520;50.932;6.962;2022-08-19T14:40:24;6.73;;;6.23;;
1062;SDS011;520;50.932;6.962;2022-08-19T14:43:14;5.97;;;5.47;;
1062;SDS011;520;50.932;6.962;2022-08-19T14:45:48;5.33;;;4.83;;
1062;SDS011;520;50.932;6.962;2022-08-19T14:48:21;5.77;;;5.27;;
1062;SDS011;520;50.932;6.962;2022-08-19T14:51:03;5.30;;;4.80;;
1062;SDS011;520;50.932;6.962;2022-08-19T14:53:45;5.97;;;5.37;;
1062;SDS011;520;50.932;6.962;2022-08-19T14:56:22;5.47;;;5.00;;
1062;SDS011;520;50.932;6.962;2022-08-19T14:59:03;6.20;;;5.40;;
1062;SDS011;520;50.932;6.962;2022-08-19T15:01:34;5.83;;;5.20;;
1062;SDS011;520;50.932;6.962;2022-08-19T15:04:05;5.00;;;4.60;;
1062;SDS011;520;50.932;6.962;2022-08-19T15:06:42;4.00;;;3.63;;
1062;SDS011;520;50.932;6.962;2022-08-19T15:09:14;4.10;;;3.80;;
1062;SDS011;520;50.932;6.962;2022-08-19T15:11:49;4.03;;;3.73;;
1062;SDS011;520;50.932;6.962;2022-08-19T15:14:21;6.10;;;4.90;;
1062;SDS011;520;50.932;6.962;2022-08-19T15:16:53;6.33;;;3.77;;
1062;SDS011;520;50.932;6.962;2022-08-19T15:19:50;4.50;;;4.10;;
1062;SDS011;520;50.932;6.962;2022-08-19T15:22:44;4.70;;;4.20;;
1062;SDS011;520;50.932;6.962;2022-08-19T15:25:19;3.73;;;3.30;;
1062;SDS011;520;50.932;6.962;2022-08-19T15:27:58;4.40;;;4.00;;
1062;SDS011;520;50.932;6.962;2022-08-19T15:31:05;4.83;;;3.70;;
1062;SDS011;520;50.932;6.962;2022-08-19T15:33:56;4.23;;;3.93;;
1062;SDS011;520;50.932;6.962;2022-08-19T15:36:54;3.70;;;3.40;;
1062;SDS011;520;50.932;6.962;2022-08-19T15:39:27;3.40;;;3.10;;
1062;SDS011;520;50.932;6.962;2022-08-19T15:42:10;5.20;;;3.70;;
1062;SDS011;520;50.932;6.962;2022-08-19T15:45:13;3.10;;;2.80;;
1062;SDS011;520;50.932;6.962;2022-08-19T15:48:00;3.10;;;2.80;;
1062;SDS011;520;50.932;6.962;2022-08-19T15:50:29;3.30;;;2.93;;
1062;SDS011;520;50.932;6.962;2022-08-19T15:53:05;4.60;;;2.90;;
1062;SDS011;520;50.932;6.962;2022-08-19T15:55:35;3.23;;;3.00;;
1062;SDS011;520;50.932;6.962;2022-08-19T15:58:11;3.87;;;3.50;;
1062;SDS011;520;50.932;6.962;2022-08-19T16:01:06;3.83;;;3.53;;
1062;SDS011;520;50.932;6.962;2022-08-19T16:03:53;4.17;;;3.87;;
1062;SDS011;520;50.932;6.962;2022-08-19T16:06:49;3.90;;;3.60;;
1062;SDS011;520;50.932;6.962;2022-08-19T16:09:23;4.53;;;3.90;;
1062;SDS011;520;50.932;6.962;2022-08-19T16:12:00;4.43;;;3.60;;
1062;SDS011;520;50.932;6.962;2022-08-19T16:14:30;4.17;;;3.77;;
1062;SDS011;520;50.932;6.962;2022-08-19T16:16:59;4.20;;;3.27;;
1062;SDS011;520;50.932;6.962;2022-08-19T16:19:27;3.90;;;3.60;;
1062;SDS011;520;50.932;6.962;2022-08-19T16:22:03;4.67;;;3.70;;
1062;SDS011;520;50.932;6.962;2022-08-19T16:24:46;6.83;;;4.30;;
1062;SDS011;520;50.932;6.962;2022-08-19T16:27:16;4.70;;;3.20;;
1062;SDS011;520;50.932;6.962;2022-08-19T16:30:00;3.57;;;3.27;;
1062;SDS011;520;50.932;6.962;2022-08-19T16:32:41;3.47;;;3.17;;
1062;SDS011;520;50.932;6.962;2022-08-19T16:35:10;3.40;;;3.10;;
1062;SDS011;520;50.932;6.962;2022-08-19T16:37:43;3.20;;;2.77;;
1062;SDS011;520;50.932;6.962;2022-08-19T16:40:10;2.80;;;2.60;;
1062;SDS011;520;50.932;6.962;2022-08-19T16:42:42;3.20;;;2.90;;
1062;SDS011;520;50.932;6.962;2022-08-19T16:45:20;2.70;;;2.50;;
1062;SDS011;520;50.932;6.962;2022-08-19T16:47:58;3.77;;;2.83;;
1062;SDS011;520;50.932;6.962;2022-08-19T16:50:30;3.27;;;2.97;;
1062;SDS011;520;50.932;6.962;2022-08-19T16:53:14;3.10;;;2.90;;
1062;SDS011;520;50.932;6.962;2022-08-19T16:55:48;3.03;;;2.63;;
1062;SDS011;520;50.932;6.962;2022-08-19T16:58:24;3.17;;;2.03;;
1062;SDS011;520;50.932;6.962;2022-08-19T17:00:57;2.13;;;2.03;;
1062;SDS011;520;50.932;6.962;2022-08-19T17:03:31;2.50;;;2.30;;
1062;SDS011;520;50.932;6.962;2022-08-19T17:06:13;2.20;;;2.10;;
1062;SDS011;520;50.932;6.962;2022-08-19T17:08:53;2.47;;;2.27;;
1062;SDS011;520;50.932;6.962;2022-08-19T17:11:25;2.10;;;2.00;;
1062;SDS011;520;50.932;6.962;2022-08-19T17:13:56;4.47;;;2.60;;
1062;SDS011;520;50.932;6.962;2022-08-19T17:16:28;3.17;;;2.00;;
1062;SDS011;520;50.932;6.962;2022-08-19T17:19:00;3.17;;;2.70;;
1062;SDS011;520;50.932;6.962;2022-08-19T17:21:34;4.60;;;2.50;;
1062;SDS011;520;50.932;6.962;2022-08-19T17:24:10;4.40;;;2.90;;
1062;SDS011;520;50.932;6.962;2022-08-19T17:26:40;4.80;;;2.37;;
1062;SDS011;520;50.932;6.962;2022-08-19T17:29:10;2.83;;;2.60;;
1062;SDS011;520;50.932;6.962;2022-08-19T17:31:40;2.90;;;2.23;;
1062;SDS011;520;50.932;6.962;2022-08-19T17:34:10;3.07;;;2.37;;
1062;SDS011;520;50.932;6.962;2022-08-19T17:36:39;2.57;;;2.37;;
1062;SDS011;520;50.932;6.962;2022-08-19T17:39:08;2.50;;;2.30;;
1062;SDS011;520;50.932;6.962;2022-08-19T17:41:40;4.70;;;3.27;;
1062;SDS011;520;50.932;6.962;2022-08-19T17:44:18;6.10;;;2.80;;
1062;SDS011;520;50.932;6.962;2022-08-19T17:46:53;3.40;;;3.20;;
1062;SDS011;520;50.932;6.962;2022-08-19T17:49:25;4.20;;;3.10;;
1062;SDS011;520;50.932;6.962;2022-08-19T17:52:01;2.97;;;2.77;;
1062;SDS011;520;50.932;6.962;2022-08-19T17:54:34;3.53;;;3.23;;
1062;SDS011;520;50.932;6.962;2022-08-19T17:57:21;3.57;;;3.23;;
1062;SDS011;520;50.932;6.962;2022-08-19T17:59:52;2.93;;;2.63;;
1062;SDS011;520;50.932;6.962;2022-08-19T18:02:23;3.00;;;2.80;;
1062;SDS011;520;50.932;6.962;2022-08-19T18:04:54;3.30;;;3.00;;
1062;SDS011;520;50.932;6.962;2022-08-19T18:07:23;4.43;;;3.70;;
1062;SDS011;520;50.932;6.962;2022-08-19T18:10:03;2.80;;;2.50;;
1062;SDS011;520;50.932;6.962;2022-08-19T18:12:30;3.67;;;3.37;;
1062;SDS011;520;50.932;6.962;2022-08-19T18:15:05;4.63;;;3.10;;
1062;SDS011;520;50.932;6.962;2022-08-19T18:17:37;3.17;;;2.97;;
1062;SDS011;520;50.932;6.962;2022-08-19T18:20:08;4.63;;;3.70;;
1062;SDS011;520;50.932;6.962;2022-08-19T18:22:45;3.33;;;2.83;;
1062;SDS011;520;50.932;6.962;2022-08-19T18:25:24;7.37;;;3.30;;
1062;SDS011;520;50.932;6.962;2022-08-19T18:28:02;3.10;;;2.80;;
1062;SDS011;520;50.932;6.962;2022-08-19T18:30:34;3.50;;;3.20;;
1062;SDS011;520;50.932;6.962;2022-08-19T18:33:10;4.40;;;2.80;;
1062;SDS011;520;50.932;6.962;2022-08-19T18:35:47;4.07;;;3.73;;
1062;SDS011;520;50.932;6.962;2022-08-19T18:38:19;3.07;;;2.63;;
1062;SDS011;520;50.932;6.962;2022-08-19T18:41:10;3.70;;;3.40;;
1062;SDS011;520;50.932;6.962;2022-08-19T18:43:58;4.43;;;4.10;;
1062;SDS011;520;50.932;6.962;2022-08-19T18:46:49;3.37;;;3.07;;
1062;SDS011;520;50.932;6.962;2022-08-19T18:49:45;4.00;;;3.13;;
1062;SDS011;520;50.932;6.962;2022-08-19T18:52:47;3.90;;;3.07;;
1062;SDS011;520;50.932;6.962;2022-08-19T18:55:17;3.77;;;3.37;;
1062;SDS011;520;50.932;6.962;2022-08-19T18:57:46;3.30;;;3.00;;
1062;SDS011;520;50.932;6.962;2022-08-19T19:00:14;3.77;;;3.40;;
1062;SDS011;520;50.932;6.962;2022-08-19T19:02:56;3.70;;;3.40;;
1062;SDS011;520;50.932;6.962;2022-08-19T19:05:34;4.00;;;3.60;;
1062;SDS011;520;50.932;6.962;2022-08-19T19:08:11;3.33;;;3.03;;
1062;SDS011;520;50.932;6.962;2022-08-19T19:10:39;3.20;;;2.90;;
1062;SDS011;520;50.932;6.962;2022-08-19T19:13:16;3.90;;;2.90;;
1062;SDS011;520;50.932;6.962;2022-08-19T19:15:49;3.40;;;3.10;;
1062;SDS011;520;50.932;6.962;2022-08-19T19:18:20;2.90;;;2.70;;
1062;SDS011;520;50.932;6.962;2022-08-19T19:20:52;3.53;;;3.27;;
1062;SDS011;520;50.932;6.962;2022-08-19T19:23:22;4.03;;;2.60;;
1062;SDS011;520;50.932;6.962;2022-08-19T19:25:55;4.00;;;2.57;;
1062;SDS011;520;50.932;6.962;2022-08-19T19:28:35;4.30;;;3.47;;
1062;SDS011;520;50.932;6.962;2022-08-19T19:31:17;3.13;;;2.80;;
1062;SDS011;520;50.932;6.962;2022-08-19T19:33:57;4.23;;;3.83;;
1062;SDS011;520;50.932;6.962;2022-08-19T19:36:25;2.93;;;2.73;;
1062;SDS011;520;50.932;6.962;2022-08-19T19:38:58;2.53;;;1.97;;
1062;SDS011;520;50.932;6.962;2022-08-19T19:41:37;2.23;;;2.03;;
1062;SDS011;520;50.932;6.962;2022-08-19T19:44:04;2.27;;;2.07;;
1062;SDS011;520;50.932;6.962;2022-08-19T19:46:53;2.33;;;1.80;;
1062;SDS011;520;50.932;6.962;2022-08-19T19:49:30;2.17;;;1.87;;
1062;SDS011;520;50.932;6.962;2022-08-19T19:52:04;2.70;;;2.17;;
1062;SDS011;520;50.932;6.962;2022-08-19T19:55:02;3.50;;;3.20;;
1062;SDS011;520;50.932;6.962;2022-08-19T19:57:39;2.40;;;2.30;;
1062;SDS011;520;50.932;6.962;2022-08-19T20:00:32;2.63;;;2.40;;
1062;SDS011;520;50.932;6.962;2022-08-19T20:03:05;2.60;;;2.40;;
1062;SDS011;520;50.932;6.962;2022-08-19T20:05:43;3.30;;;2.10;;
1062;SDS011;520;50.932;6.962;2022-08-19T20:08:29;2.43;;;2.17;;
1062;SDS011;520;50.932;6.962;2022-08-19T20:12:16;3.43;;;2.57;;
1062;SDS011;520;50.932;6.962;2022-08-19T20:14:22;2.73;;;2.30;;
1062;SDS011;520;50.932;6.962;2022-08-19T20:16:51;2.30;;;2.10;;
1062;SDS011;520;50.932;6.962;2022-08-19T20:19:20;3.27;;;2.50;;
1062;SDS011;520;50.932;6.962;2022-08-19T20:21:51;7.83;;;2.67;;
1062;SDS011;520;50.932;6.962;2022-08-19T20:24:22;3.83;;;2.57;;
1062;SDS011;520;50.932;6.962;2022-08-19T20:26:58;2.93;;;2.73;;
1062;SDS011;520;50.932;6.962;2022-08-19T20:29:26;2.10;;;1.90;;
1062;SDS011;520;50.932;6.962;2022-08-19T20:32:04;1.80;;;1.70;;
1062;SDS011;520;50.932;6.962;2022-08-19T20:34:38;2.13;;;1.80;;
1062;SDS011;520;50.932;6.962;2022-08-19T20:37:06;2.10;;;1.90;;
1062;SDS011;520;50.932;6.962;2022-08-19T20:39:34;3.40;;;2.20;;
1062;SDS011;520;50.932;6.962;2022-08-19T20:42:02;2.10;;;1.90;;
1062;SDS011;520;50.932;6.962;2022-08-19T20:44:35;2.33;;;2.17;;
1062;SDS011;520;50.932;6.962;2022-08-19T20:47:05;2.57;;;1.80;;
1062;SDS011;520;50.932;6.962;2022-08-19T20:49:35;2.50;;;2.20;;
1062;SDS011;520;50.932;6.962;2022-08-19T20:52:04;2.30;;;2.10;;
1062;SDS011;520;50.932;6.962;2022-08-19T20:54:33;1.80;;;1.70;;
1062;SDS011;520;50.932;6.962;2022-08-19T20:57:05;3.00;;;1.90;;
1062;SDS011;520;50.932;6.962;2022-08-19T20:59:34;2.43;;;2.23;;